createdAt,value
2017-06-17T00:00:25.093Z,68.80
2017-06-17T00:02:54.648Z,66.40
2017-06-17T00:05:24.808Z,66.90
2017-06-17T00:07:54.296Z,69.70
2017-06-17T00:10:24.113Z,67.90
2017-06-17T00:12:53.336Z,71.80
2017-06-17T00:15:22.885Z,71.10
2017-06-17T00:17:52.409Z,76.60
2017-06-17T00:20:21.725Z,75.50
2017-06-17T00:22:51.246Z,79.00
2017-06-17T00:25:20.804Z,75.50
2017-06-17T00:27:50.298Z,76.90
2017-06-17T00:30:19.589Z,77.90
2017-06-17T00:32:48.666Z,78.40
2017-06-17T00:35:18.307Z,90.10
2017-06-17T00:37:47.845Z,92.10
2017-06-17T00:40:17.447Z,91.70
2017-06-17T00:42:47.188Z,96.60
2017-06-17T00:45:16.329Z,91.90
2017-06-17T00:47:45.938Z,94.50
2017-06-17T00:50:15.399Z,94.40
2017-06-17T00:52:44.963Z,95.00
2017-06-17T00:55:15.529Z,95.00
2017-06-17T00:57:44.944Z,95.00
2017-06-17T01:00:15.201Z,90.70
2017-06-17T01:02:44.822Z,91.80
2017-06-17T01:05:14.236Z,93.20
2017-06-17T01:07:43.830Z,90.30
2017-06-17T01:10:14.004Z,90.40
2017-06-17T01:12:43.477Z,90.30
2017-06-17T01:15:12.912Z,93.10
2017-06-17T01:17:42.668Z,86.70
2017-06-17T01:20:11.819Z,91.00
2017-06-17T01:22:41.343Z,88.60
2017-06-17T01:25:10.553Z,89.20
2017-06-17T01:27:39.705Z,90.80
2017-06-17T01:30:13.181Z,88.80
2017-06-17T01:32:42.619Z,85.90
2017-06-17T01:35:11.960Z,89.90
2017-06-17T01:37:41.517Z,91.30
2017-06-17T01:40:11.242Z,91.60
2017-06-17T01:42:40.580Z,90.70
2017-06-17T01:45:10.095Z,91.20
2017-06-17T01:47:40.626Z,90.40
2017-06-17T01:50:10.810Z,89.10
2017-06-17T01:52:40.345Z,89.10
2017-06-17T01:55:09.854Z,86.50
2017-06-17T01:57:41.246Z,90.70
2017-06-17T02:00:10.827Z,90.00
2017-06-17T02:02:41.833Z,90.20
2017-06-17T02:05:11.420Z,87.80
2017-06-17T02:07:40.964Z,89.40
2017-06-17T02:10:10.350Z,86.10
2017-06-17T02:12:40.052Z,85.30
2017-06-17T02:15:09.166Z,85.70
2017-06-17T02:17:38.544Z,88.20
2017-06-17T02:20:07.923Z,88.00
2017-06-17T02:22:37.496Z,86.60
2017-06-17T02:25:07.189Z,88.30
2017-06-17T02:27:36.739Z,88.40
2017-06-17T02:30:06.033Z,87.40
2017-06-17T02:32:35.751Z,89.60
2017-06-17T02:35:05.154Z,85.90
2017-06-17T02:37:34.938Z,88.30
2017-06-17T02:40:05.592Z,91.00
2017-06-17T02:42:34.965Z,91.00
2017-06-17T02:45:04.757Z,89.50
2017-06-17T02:47:34.635Z,91.60
2017-06-17T02:50:03.813Z,88.30
2017-06-17T02:52:33.319Z,88.30
2017-06-17T02:55:02.757Z,89.10
2017-06-17T02:57:32.336Z,89.50
2017-06-17T03:00:01.834Z,88.80
2017-06-17T03:02:31.550Z,89.70
2017-06-17T03:05:01.798Z,87.90
2017-06-17T03:07:31.334Z,86.50
2017-06-17T03:10:00.918Z,88.10
2017-06-17T03:12:30.426Z,85.20
2017-06-17T03:14:59.738Z,89.70
2017-06-17T03:17:28.829Z,87.70
2017-06-17T03:19:58.047Z,88.80
2017-06-17T03:22:27.532Z,89.10
2017-06-17T03:24:57.065Z,89.30
2017-06-17T03:27:26.552Z,91.00
2017-06-17T03:29:56.094Z,90.40
2017-06-17T03:32:25.319Z,88.60
2017-06-17T03:34:54.942Z,90.70
2017-06-17T03:37:24.623Z,93.30
2017-06-17T03:39:53.802Z,93.10
2017-06-17T03:42:23.247Z,93.70
2017-06-17T03:44:52.386Z,92.50
2017-06-17T03:47:21.826Z,93.20
2017-06-17T03:49:51.013Z,92.90
2017-06-17T03:52:20.502Z,93.00
2017-06-17T03:54:49.833Z,93.20
2017-06-17T03:57:19.155Z,94.70
2017-06-17T03:59:48.870Z,93.80
2017-06-17T04:02:18.269Z,99.50
2017-06-17T04:04:47.660Z,99.90
2017-06-17T04:07:18.314Z,99.90
2017-06-17T04:09:47.780Z,99.90
2017-06-17T04:12:17.513Z,99.90
2017-06-17T04:14:46.891Z,96.90
2017-06-17T04:17:16.161Z,99.90
2017-06-17T04:19:45.358Z,95.40
2017-06-17T04:22:15.144Z,98.00
2017-06-17T04:24:44.393Z,97.80
2017-06-17T04:27:13.786Z,97.00
2017-06-17T04:29:45.137Z,97.30
2017-06-17T04:32:15.332Z,96.70
2017-06-17T04:34:44.631Z,96.70
2017-06-17T04:37:14.008Z,93.90
2017-06-17T04:39:43.377Z,94.50
2017-06-17T04:42:12.672Z,94.80
2017-06-17T04:44:42.031Z,94.50
2017-06-17T04:47:11.664Z,94.00
2017-06-17T04:49:48.309Z,94.20
2017-06-17T04:52:18.071Z,95.30
2017-06-17T04:54:47.632Z,94.20
2017-06-17T04:57:17.207Z,95.80
2017-06-17T04:59:46.724Z,98.20
2017-06-17T05:02:16.077Z,97.10
2017-06-17T05:04:45.709Z,96.50
2017-06-17T05:07:14.976Z,97.10
2017-06-17T05:09:45.201Z,96.40
2017-06-17T05:12:14.807Z,95.30
2017-06-17T05:14:44.008Z,94.50
2017-06-17T05:17:13.390Z,97.50
2017-06-17T05:19:42.608Z,98.40
2017-06-17T05:22:11.730Z,99.00
2017-06-17T05:24:40.940Z,99.90
2017-06-17T05:27:10.395Z,99.90
2017-06-17T05:29:39.656Z,99.90
2017-06-17T05:32:09.350Z,99.90
2017-06-17T05:34:38.806Z,99.70
2017-06-17T05:37:08.351Z,99.90
2017-06-17T05:39:37.969Z,99.90
2017-06-17T05:42:07.487Z,99.90
2017-06-17T05:44:36.914Z,99.90
2017-06-17T05:47:06.053Z,99.90
2017-06-17T05:49:35.498Z,99.90
2017-06-17T05:52:04.639Z,99.90
2017-06-17T05:54:35.494Z,99.90
2017-06-17T05:57:04.885Z,99.90
2017-06-17T05:59:34.592Z,99.90
2017-06-17T06:02:04.089Z,99.90
2017-06-17T06:04:33.639Z,99.90
2017-06-17T06:07:03.062Z,99.90
2017-06-17T06:09:32.589Z,99.90
2017-06-17T06:12:02.685Z,99.90
2017-06-17T06:14:32.186Z,98.50
2017-06-17T06:17:01.447Z,99.90
2017-06-17T06:19:31.291Z,99.90
2017-06-17T06:22:00.583Z,99.90
2017-06-17T06:24:29.467Z,98.60
2017-06-17T06:26:59.086Z,95.70
2017-06-17T06:29:28.479Z,95.80
2017-06-17T06:31:57.913Z,98.50
2017-06-17T06:34:27.284Z,96.40
2017-06-17T06:36:56.573Z,96.70
2017-06-17T06:39:25.613Z,95.80
2017-06-17T06:41:55.033Z,95.80
2017-06-17T06:44:24.472Z,98.10
2017-06-17T06:46:53.912Z,96.00
2017-06-17T06:49:23.218Z,94.60
2017-06-17T06:51:52.520Z,94.30
2017-06-17T06:54:21.773Z,96.30
2017-06-17T06:56:51.934Z,96.90
2017-06-17T06:59:22.512Z,96.90
2017-06-17T07:01:52.841Z,98.00
2017-06-17T07:04:22.406Z,97.90
2017-06-17T07:06:52.922Z,98.00
2017-06-17T07:09:22.768Z,97.40
2017-06-17T07:11:51.880Z,95.70
2017-06-17T07:14:22.156Z,96.20
2017-06-17T07:16:51.924Z,96.60
2017-06-17T07:19:22.265Z,97.80
2017-06-17T07:21:51.740Z,97.80
2017-06-17T07:24:21.777Z,95.80
2017-06-17T07:26:51.233Z,98.50
2017-06-17T07:29:19.962Z,97.60
2017-06-17T07:31:48.684Z,97.80
2017-06-17T07:34:17.356Z,97.70
2017-06-17T07:36:46.529Z,99.00
2017-06-17T07:39:15.980Z,96.60
2017-06-17T07:41:45.274Z,96.80
2017-06-17T07:44:15.340Z,93.50
2017-06-17T07:46:44.724Z,95.60
2017-06-17T07:49:14.042Z,97.10
2017-06-17T07:51:43.454Z,95.40
2017-06-17T07:54:13.671Z,94.70
2017-06-17T07:56:42.847Z,95.10
2017-06-17T07:59:12.131Z,95.50
2017-06-17T08:01:41.346Z,95.40
2017-06-17T08:04:11.003Z,93.70
2017-06-17T08:06:40.430Z,95.10
2017-06-17T08:09:09.953Z,95.60
2017-06-17T08:11:39.521Z,96.60
2017-06-17T08:14:09.088Z,94.90
2017-06-17T08:16:39.978Z,94.10
2017-06-17T08:19:09.385Z,96.60
2017-06-17T08:21:38.975Z,96.00
2017-06-17T08:24:08.434Z,95.80
2017-06-17T08:26:38.064Z,96.90
2017-06-17T08:29:07.415Z,96.00
2017-06-17T08:31:36.103Z,94.50
2017-06-17T08:34:05.614Z,95.30
2017-06-17T08:36:35.222Z,95.50
2017-06-17T08:39:04.996Z,96.40
2017-06-17T08:41:34.251Z,97.00
2017-06-17T08:44:03.553Z,96.50
2017-06-17T08:46:33.007Z,95.70
2017-06-17T08:49:02.363Z,95.10
2017-06-17T08:51:31.666Z,96.60
2017-06-17T08:54:01.240Z,99.10
2017-06-17T08:56:30.885Z,95.90
2017-06-17T08:59:00.115Z,96.90
2017-06-17T09:01:29.597Z,98.10
2017-06-17T09:03:58.983Z,97.30
2017-06-17T09:06:28.416Z,95.70
2017-06-17T09:08:57.837Z,96.40
2017-06-17T09:11:27.436Z,95.50
2017-06-17T09:13:56.574Z,95.00
2017-06-17T09:16:26.037Z,96.60
2017-06-17T09:18:57.589Z,96.80
2017-06-17T09:21:27.137Z,96.80
2017-06-17T09:23:56.271Z,98.40
2017-06-17T09:26:25.778Z,96.20
2017-06-17T09:28:55.050Z,98.20
2017-06-17T09:31:24.340Z,95.90
2017-06-17T09:33:53.714Z,96.50
2017-06-17T09:36:23.162Z,96.30
2017-06-17T09:38:52.677Z,98.90
2017-06-17T09:41:22.111Z,98.30
2017-06-17T09:43:52.104Z,97.20
2017-06-17T09:46:21.434Z,96.60
2017-06-17T09:48:51.116Z,96.10
2017-06-17T09:51:20.758Z,97.10
2017-06-17T09:53:50.343Z,97.30
2017-06-17T09:56:20.064Z,98.20
2017-06-17T09:58:50.389Z,96.40
2017-06-17T10:01:19.982Z,96.40
2017-06-17T10:03:49.016Z,96.00
2017-06-17T10:06:18.404Z,96.50
2017-06-17T10:08:47.932Z,97.00
2017-06-17T10:11:17.392Z,97.80
2017-06-17T10:13:46.731Z,96.20
2017-06-17T10:16:16.219Z,96.30
2017-06-17T10:18:45.727Z,96.60
2017-06-17T10:21:16.541Z,95.90
2017-06-17T10:23:45.702Z,99.10
2017-06-17T10:26:15.069Z,96.40
2017-06-17T10:28:44.554Z,96.90
2017-06-17T10:31:14.276Z,97.90
2017-06-17T10:33:43.474Z,98.00
2017-06-17T10:36:12.845Z,97.30
2017-06-17T10:38:42.303Z,98.50
2017-06-17T10:41:11.845Z,98.40
2017-06-17T10:43:41.342Z,97.80
2017-06-17T10:46:10.923Z,97.70
2017-06-17T10:48:40.549Z,96.40
2017-06-17T10:51:10.165Z,98.10
2017-06-17T10:53:39.567Z,98.70
2017-06-17T10:56:08.964Z,98.50
2017-06-17T10:58:38.157Z,98.80
2017-06-17T11:01:07.546Z,98.20
2017-06-17T11:03:36.971Z,96.70
2017-06-17T11:06:06.416Z,97.00
2017-06-17T11:08:35.796Z,97.50
2017-06-17T11:11:05.448Z,97.80
2017-06-17T11:13:35.024Z,97.40
2017-06-17T11:16:04.284Z,98.40
2017-06-17T11:18:33.492Z,97.90
2017-06-17T11:21:02.673Z,98.30
2017-06-17T11:23:32.270Z,98.50
2017-06-17T11:26:01.654Z,99.20
2017-06-17T11:28:30.944Z,99.80
2017-06-17T11:31:01.203Z,99.90
2017-06-17T11:33:30.417Z,99.90
2017-06-17T11:35:59.737Z,99.70
2017-06-17T11:38:29.174Z,99.90
2017-06-17T11:40:58.901Z,99.00
2017-06-17T11:43:28.520Z,99.90
2017-06-17T11:45:57.957Z,99.90
2017-06-17T11:48:27.467Z,99.90
2017-06-17T11:50:56.977Z,99.90
2017-06-17T11:53:26.340Z,99.90
2017-06-17T11:55:55.711Z,99.90
2017-06-17T11:58:25.789Z,99.90
2017-06-17T12:00:54.922Z,99.90
2017-06-17T12:03:25.062Z,99.90
2017-06-17T12:05:54.342Z,99.90
2017-06-17T12:08:23.902Z,97.70
2017-06-17T12:10:53.177Z,98.80
2017-06-17T12:13:22.510Z,99.90
2017-06-17T12:15:51.875Z,98.20
2017-06-17T12:18:21.455Z,97.80
2017-06-17T12:20:50.946Z,98.10
2017-06-17T12:23:20.893Z,96.80
2017-06-17T12:25:51.335Z,97.60
2017-06-17T12:28:20.781Z,97.70
2017-06-17T12:30:50.476Z,98.40
2017-06-17T12:33:19.790Z,98.10
2017-06-17T12:35:49.270Z,99.20
2017-06-17T12:38:18.755Z,99.90
2017-06-17T12:40:48.060Z,98.50
2017-06-17T12:43:18.379Z,96.70
2017-06-17T12:45:47.065Z,97.10
2017-06-17T12:48:16.307Z,96.40
2017-06-17T12:50:45.749Z,97.40
2017-06-17T12:53:15.136Z,98.00
2017-06-17T12:55:44.685Z,98.30
2017-06-17T12:58:14.172Z,99.20
2017-06-17T13:00:43.603Z,98.80
2017-06-17T13:03:12.945Z,99.50
2017-06-17T13:05:42.255Z,99.10
2017-06-17T13:08:11.815Z,98.00
2017-06-17T13:10:40.986Z,96.40
2017-06-17T13:13:10.381Z,95.70
2017-06-17T13:15:39.820Z,97.20
2017-06-17T13:18:09.084Z,95.60
2017-06-17T13:20:39.552Z,96.20
2017-06-17T13:23:09.369Z,96.20
2017-06-17T13:25:38.938Z,95.00
2017-06-17T13:28:09.313Z,95.40
2017-06-17T13:30:38.654Z,94.10
2017-06-17T13:33:08.955Z,95.40
2017-06-17T13:35:38.269Z,95.40
2017-06-17T13:38:07.509Z,95.20
2017-06-17T13:40:36.923Z,96.70
2017-06-17T13:43:06.485Z,95.20
2017-06-17T13:45:35.853Z,95.50
2017-06-17T13:48:05.113Z,94.90
2017-06-17T13:50:34.594Z,92.70
2017-06-17T13:53:05.018Z,93.40
2017-06-17T13:55:34.458Z,93.30
2017-06-17T13:58:04.015Z,92.10
2017-06-17T14:00:33.410Z,90.60
2017-06-17T14:03:02.705Z,91.10
2017-06-17T14:05:31.892Z,90.50
2017-06-17T14:08:01.418Z,90.50
2017-06-17T14:10:31.175Z,85.40
2017-06-17T14:13:00.513Z,84.50
2017-06-17T14:15:29.950Z,85.30
2017-06-17T14:17:59.332Z,84.40
2017-06-17T14:20:28.939Z,84.20
2017-06-17T14:22:57.758Z,87.30
2017-06-17T14:25:27.496Z,84.30
2017-06-17T14:27:56.729Z,82.30
2017-06-17T14:30:26.913Z,81.70
2017-06-17T14:32:56.606Z,82.00
2017-06-17T14:35:26.180Z,84.40
2017-06-17T14:37:55.675Z,80.10
2017-06-17T14:40:25.170Z,81.70
2017-06-17T14:42:54.880Z,83.80
2017-06-17T14:45:24.201Z,78.00
2017-06-17T14:47:53.433Z,76.50
2017-06-17T14:50:23.065Z,81.90
2017-06-17T14:52:51.983Z,75.00
2017-06-17T14:55:21.428Z,78.80
2017-06-17T14:57:51.081Z,77.20
2017-06-17T15:00:20.434Z,81.50
2017-06-17T15:02:49.901Z,80.10
2017-06-17T15:05:19.250Z,81.60
2017-06-17T15:07:48.741Z,82.00
2017-06-17T15:10:18.153Z,78.10
2017-06-17T15:12:47.303Z,79.80
2017-06-17T15:15:16.779Z,82.40
2017-06-17T15:17:46.186Z,82.40
2017-06-17T15:20:16.036Z,82.10
2017-06-17T15:22:45.604Z,77.30
2017-06-17T15:25:15.280Z,76.90
2017-06-17T15:27:44.881Z,78.20
2017-06-17T15:30:14.118Z,78.70
2017-06-17T15:32:44.516Z,73.70
2017-06-17T15:35:14.477Z,77.30
2017-06-17T15:37:43.905Z,77.40
2017-06-17T15:40:13.236Z,78.60
2017-06-17T15:42:42.556Z,76.00
2017-06-17T15:45:11.835Z,74.00
2017-06-17T15:47:41.488Z,75.60
2017-06-17T15:50:10.903Z,78.00
2017-06-17T15:52:40.492Z,75.60
2017-06-17T15:55:10.022Z,73.70
2017-06-17T15:57:46.837Z,73.60
2017-06-17T16:00:16.520Z,78.30
2017-06-17T16:02:45.853Z,70.80
2017-06-17T16:05:21.998Z,71.70
2017-06-17T16:07:51.279Z,77.20
2017-06-17T16:10:20.615Z,78.30
2017-06-17T16:12:49.877Z,75.30
2017-06-17T16:15:19.026Z,72.50
2017-06-17T16:17:48.186Z,75.40
2017-06-17T16:20:17.528Z,74.30
2017-06-17T16:22:47.911Z,73.00
2017-06-17T16:25:17.419Z,73.10
2017-06-17T16:27:46.810Z,79.60
2017-06-17T16:30:16.426Z,77.30
2017-06-17T16:32:46.723Z,72.50
2017-06-17T16:35:16.181Z,69.40
2017-06-17T16:37:45.809Z,72.80
2017-06-17T16:40:15.323Z,70.70
2017-06-17T16:42:44.535Z,70.00
2017-06-17T16:45:14.200Z,70.80
2017-06-17T16:47:44.633Z,71.90
2017-06-17T16:50:15.573Z,72.00
2017-06-17T16:52:45.839Z,69.20
2017-06-17T16:55:15.288Z,69.20
2017-06-17T16:57:46.146Z,73.60
2017-06-17T17:00:17.853Z,67.60
2017-06-17T17:02:47.329Z,73.00
2017-06-17T17:05:16.739Z,66.20
2017-06-17T17:07:46.217Z,62.60
2017-06-17T17:10:15.708Z,51.70
2017-06-17T17:12:45.370Z,47.40
2017-06-17T17:15:15.064Z,55.80
2017-06-17T17:17:44.255Z,44.20
2017-06-17T17:20:13.524Z,34.00
2017-06-17T17:22:42.942Z,26.00
2017-06-17T17:25:12.442Z,23.30
2017-06-17T17:27:41.855Z,22.20
2017-06-17T17:30:11.414Z,21.20
2017-06-17T17:32:40.798Z,20.50
2017-06-17T17:35:11.486Z,17.80
2017-06-17T17:37:40.999Z,21.20
2017-06-17T17:40:10.128Z,18.50
2017-06-17T17:42:39.179Z,21.60
2017-06-17T17:45:09.344Z,22.60
2017-06-17T17:47:39.877Z,22.50
2017-06-17T17:50:09.323Z,23.90
2017-06-17T17:52:38.568Z,25.30
2017-06-17T17:55:08.004Z,31.70
2017-06-17T17:57:37.274Z,29.60
2017-06-17T18:00:06.634Z,27.30
2017-06-17T18:02:37.214Z,31.20
2017-06-17T18:05:06.824Z,34.20
2017-06-17T18:07:36.339Z,35.50
2017-06-17T18:10:05.633Z,32.90
2017-06-17T18:12:35.059Z,33.10
2017-06-17T18:15:04.297Z,34.80
2017-06-17T18:17:33.691Z,33.60
2017-06-17T18:20:03.662Z,34.10
2017-06-17T18:22:40.592Z,34.00
2017-06-17T18:25:10.967Z,51.00
2017-06-17T18:27:42.321Z,50.80
2017-06-17T18:30:11.665Z,45.30
2017-06-17T18:32:41.409Z,47.00
2017-06-17T18:35:11.486Z,51.60
2017-06-17T18:37:41.127Z,45.10
2017-06-17T18:40:10.410Z,41.50
2017-06-17T18:42:39.958Z,36.50
2017-06-17T18:45:09.219Z,48.80
2017-06-17T18:47:40.194Z,40.40
2017-06-17T18:50:28.046Z,44.60
2017-06-17T18:52:58.102Z,49.50
2017-06-17T18:55:27.486Z,47.00
2017-06-17T18:57:56.952Z,42.10
2017-06-17T19:00:26.517Z,40.90
2017-06-17T19:02:55.808Z,46.50
2017-06-17T19:05:26.558Z,51.60
2017-06-17T19:07:55.756Z,52.90
2017-06-17T19:10:26.313Z,43.50
2017-06-17T19:12:56.646Z,35.50
2017-06-17T19:15:26.040Z,35.20
2017-06-17T19:17:55.658Z,49.90
2017-06-17T19:20:25.231Z,41.00
2017-06-17T19:22:54.766Z,36.40
2017-06-17T19:25:24.263Z,29.70
2017-06-17T19:27:53.945Z,31.00
2017-06-17T19:30:24.158Z,35.60
2017-06-17T19:32:53.592Z,45.40
2017-06-17T19:35:23.339Z,40.10
2017-06-17T19:37:52.951Z,45.80
2017-06-17T19:40:22.403Z,35.00
2017-06-17T19:42:51.866Z,40.90
2017-06-17T19:45:22.485Z,31.90
2017-06-17T19:47:52.239Z,34.20
2017-06-17T19:50:22.737Z,35.70
2017-06-17T19:52:52.295Z,35.60
2017-06-17T19:55:22.427Z,32.60
2017-06-17T19:57:52.316Z,34.30
2017-06-17T20:00:21.815Z,37.30
2017-06-17T20:02:58.576Z,29.90
2017-06-17T20:05:28.286Z,43.60
2017-06-17T20:07:57.527Z,46.90
2017-06-17T20:10:27.434Z,32.90
2017-06-17T20:12:56.867Z,31.40
2017-06-17T20:15:26.319Z,48.90
2017-06-17T20:17:55.735Z,45.20
2017-06-17T20:20:25.718Z,40.20
2017-06-17T20:22:55.438Z,48.70
2017-06-17T20:25:25.023Z,37.60
2017-06-17T20:27:54.397Z,43.60
2017-06-17T20:30:23.615Z,44.80
2017-06-17T20:32:53.277Z,45.30
2017-06-17T20:35:22.499Z,41.40
2017-06-17T20:37:52.854Z,46.80
2017-06-17T20:40:22.447Z,46.80
2017-06-17T20:42:52.273Z,43.50
2017-06-17T20:45:21.665Z,33.00
2017-06-17T20:47:51.409Z,38.60
2017-06-17T20:50:21.360Z,39.90
2017-06-17T20:52:50.900Z,53.20
2017-06-17T20:55:20.350Z,31.90
2017-06-17T20:57:54.613Z,40.30
2017-06-17T21:00:24.058Z,40.30
2017-06-17T21:02:53.471Z,50.30
2017-06-17T21:05:23.849Z,38.20
2017-06-17T21:07:54.240Z,38.30
2017-06-17T21:10:23.449Z,42.10
2017-06-17T21:12:52.447Z,42.70
2017-06-17T21:15:23.241Z,45.20
2017-06-17T21:17:52.919Z,47.90
2017-06-17T21:20:22.285Z,45.90
2017-06-17T21:22:51.721Z,49.20
2017-06-17T21:25:21.478Z,42.60
2017-06-17T21:27:51.947Z,44.40
2017-06-17T21:30:21.320Z,44.10
2017-06-17T21:32:50.889Z,35.70
2017-06-17T21:35:20.252Z,32.60
2017-06-17T21:37:49.533Z,32.10
2017-06-17T21:40:18.608Z,40.20
2017-06-17T21:42:47.976Z,42.00
2017-06-17T21:45:17.771Z,44.90
2017-06-17T21:47:47.322Z,48.00
2017-06-17T21:50:16.582Z,36.10
2017-06-17T21:52:46.005Z,40.50
2017-06-17T21:55:15.269Z,39.70
2017-06-17T21:57:44.570Z,40.30
2017-06-17T22:00:15.270Z,36.00
2017-06-17T22:02:45.001Z,33.50
2017-06-17T22:05:14.461Z,33.80
2017-06-17T22:07:43.748Z,32.50
2017-06-17T22:10:13.226Z,38.90
2017-06-17T22:12:42.665Z,31.60
2017-06-17T22:15:12.476Z,31.00
2017-06-17T22:17:41.927Z,30.90
2017-06-17T22:20:11.518Z,32.80
2017-06-17T22:22:41.118Z,35.00
2017-06-17T22:25:10.806Z,34.50
2017-06-17T22:27:40.310Z,35.90
2017-06-17T22:30:09.750Z,38.00
2017-06-17T22:32:40.233Z,44.90
2017-06-17T22:35:09.757Z,44.90
2017-06-17T22:37:39.452Z,34.10
2017-06-17T22:40:09.117Z,39.00
2017-06-17T22:42:38.405Z,34.70
2017-06-17T22:45:08.799Z,37.10
2017-06-17T22:47:38.164Z,37.40
2017-06-17T22:50:07.683Z,35.40
2017-06-17T22:52:37.203Z,39.30
2017-06-17T22:55:06.737Z,35.70
2017-06-17T22:57:36.071Z,37.70
2017-06-17T23:00:05.306Z,36.60
2017-06-17T23:02:35.573Z,39.30
2017-06-17T23:05:05.915Z,38.40
2017-06-17T23:07:35.719Z,38.20
2017-06-17T23:10:05.262Z,44.50
2017-06-17T23:12:34.711Z,41.80
2017-06-17T23:15:04.056Z,40.40
2017-06-17T23:17:33.274Z,42.20
2017-06-17T23:20:02.707Z,43.60
2017-06-17T23:22:31.990Z,40.10
2017-06-17T23:25:01.126Z,43.40
2017-06-17T23:27:31.523Z,42.30
2017-06-17T23:30:01.102Z,42.60
2017-06-17T23:32:30.844Z,42.10
2017-06-17T23:35:00.316Z,42.30
2017-06-17T23:37:29.785Z,42.60
2017-06-17T23:39:59.258Z,50.20
2017-06-17T23:42:29.019Z,43.60
2017-06-17T23:44:58.670Z,49.80
2017-06-17T23:47:27.785Z,54.50
2017-06-17T23:49:57.261Z,57.20
2017-06-17T23:52:26.559Z,46.70
2017-06-17T23:54:56.070Z,49.00
2017-06-17T23:57:25.336Z,45.20
2017-06-17T23:59:54.722Z,50.40
